Sanbornville, New Hampshire
Current Conditions -  °F | °C
As of 10:35 AM on Saturday 22 Nov 2014 (Local Time) from KSFM Reporting Station
Clear Clear  
Wind Chill: 18°   Ceiling: Unl
Heat Index: 28°   Visibility: 10mi
Dew Point: 10°   Wind: 13mph
Humidity: 47%   Direction: 240°WSW
Pressure: 30.26"   Gusts: 16mph
Location:  43.55°N, 71.03°W
Report Text: KSFM 221535Z AUTO 24011G14KT 10SM CLR M02/M12 A3026 RMK AO1
Loading
Personal Weather Stations






























Interactive Weather Map New forecast layout! Learn more

10-Day Weather Forecast

Advertisements
Track Severe Weather on mobile